sensor_id;sensor_type;location;lat;lon;timestamp;pressure;altitude;pressure_sealevel;temperature;humidity
70571;BME280;58135;50.948;-1.458;2022-12-04T00:01:24;101245.27;;;8.34;16.22
70571;BME280;58135;50.948;-1.458;2022-12-04T00:03:51;101244.86;;;3.88;16.19
70571;BME280;58135;50.948;-1.458;2022-12-04T00:06:16;101242.81;;;6.31;16.45
70571;BME280;58135;50.948;-1.458;2022-12-04T00:08:39;101246.34;;;8.13;16.23
70571;BME280;58135;50.948;-1.458;2022-12-04T00:11:07;101242.81;;;5.89;16.71
70571;BME280;58135;50.948;-1.458;2022-12-04T00:13:30;101242.99;;;6.76;16.59
70571;BME280;58135;50.948;-1.458;2022-12-04T00:15:55;101243.35;;;7.94;16.74
70571;BME280;58135;50.948;-1.458;2022-12-04T00:18:20;101242.46;;;7.87;16.58
70571;BME280;58135;50.948;-1.458;2022-12-04T00:20:46;101241.75;;;5.78;16.95
70571;BME280;58135;50.948;-1.458;2022-12-04T00:23:11;101241.96;;;5.89;16.88
70571;BME280;58135;50.948;-1.458;2022-12-04T00:25:37;101245.74;;;7.43;16.85
70571;BME280;58135;50.948;-1.458;2022-12-04T00:28:02;101241.08;;;7.54;16.74
70571;BME280;58135;50.948;-1.458;2022-12-04T00:30:28;101240.33;;;6.74;16.87
70571;BME280;58135;50.948;-1.458;2022-12-04T00:32:53;101239.50;;;6.64;17.16
70571;BME280;58135;50.948;-1.458;2022-12-04T00:35:18;101246.80;;;7.23;17.00
70571;BME280;58135;50.948;-1.458;2022-12-04T00:37:44;101240.07;;;6.14;16.95
70571;BME280;58135;50.948;-1.458;2022-12-04T00:40:10;101239.52;;;6.31;16.92
70571;BME280;58135;50.948;-1.458;2022-12-04T00:42:35;101231.99;;;6.03;16.85
70571;BME280;58135;50.948;-1.458;2022-12-04T00:45:00;101231.43;;;7.02;17.21
70571;BME280;58135;50.948;-1.458;2022-12-04T00:47:25;101226.91;;;6.14;17.15
70571;BME280;58135;50.948;-1.458;2022-12-04T00:49:51;101221.25;;;7.85;16.85
70571;BME280;58135;50.948;-1.458;2022-12-04T00:52:16;101216.70;;;5.86;17.29
70571;BME280;58135;50.948;-1.458;2022-12-04T00:54:42;101217.15;;;6.72;17.33
70571;BME280;58135;50.948;-1.458;2022-12-04T00:57:08;101208.53;;;6.21;17.07
70571;BME280;58135;50.948;-1.458;2022-12-04T00:59:35;101206.72;;;7.10;16.84
70571;BME280;58135;50.948;-1.458;2022-12-04T01:01:59;101205.91;;;7.77;16.96
70571;BME280;58135;50.948;-1.458;2022-12-04T01:04:25;101205.14;;;7.13;16.80
70571;BME280;58135;50.948;-1.458;2022-12-04T01:06:50;101207.11;;;7.30;16.85
70571;BME280;58135;50.948;-1.458;2022-12-04T01:09:16;101207.54;;;7.23;16.42
70571;BME280;58135;50.948;-1.458;2022-12-04T01:11:41;101208.26;;;7.96;16.88
70571;BME280;58135;50.948;-1.458;2022-12-04T01:14:07;101203.67;;;6.04;16.49
70571;BME280;58135;50.948;-1.458;2022-12-04T01:16:35;101200.87;;;7.03;16.40
70571;BME280;58135;50.948;-1.458;2022-12-04T01:18:58;101200.08;;;6.83;16.19
70571;BME280;58135;50.948;-1.458;2022-12-04T01:21:23;101196.44;;;6.25;16.46
70571;BME280;58135;50.948;-1.458;2022-12-04T01:23:49;101194.25;;;3.45;16.57
70571;BME280;58135;50.948;-1.458;2022-12-04T01:26:14;101194.98;;;6.24;16.65
70571;BME280;58135;50.948;-1.458;2022-12-04T01:28:40;101191.68;;;8.43;16.55
70571;BME280;58135;50.948;-1.458;2022-12-04T01:31:07;101192.12;;;6.47;16.47
70571;BME280;58135;50.948;-1.458;2022-12-04T01:33:32;101193.37;;;6.52;16.06
70571;BME280;58135;50.948;-1.458;2022-12-04T01:35:57;101194.31;;;7.33;15.91
70571;BME280;58135;50.948;-1.458;2022-12-04T01:38:22;101195.03;;;6.20;16.58
70571;BME280;58135;50.948;-1.458;2022-12-04T01:40:48;101190.43;;;7.42;16.26
70571;BME280;58135;50.948;-1.458;2022-12-04T01:43:14;101190.11;;;7.14;16.32
70571;BME280;58135;50.948;-1.458;2022-12-04T01:45:39;101190.88;;;7.47;16.48
70571;BME280;58135;50.948;-1.458;2022-12-04T01:48:08;101190.04;;;6.76;16.25
70571;BME280;58135;50.948;-1.458;2022-12-04T01:50:30;101188.54;;;5.94;16.04
70571;BME280;58135;50.948;-1.458;2022-12-04T01:52:55;101189.56;;;6.67;16.58
70571;BME280;58135;50.948;-1.458;2022-12-04T01:55:20;101187.68;;;5.68;16.45
70571;BME280;58135;50.948;-1.458;2022-12-04T01:57:45;101184.90;;;5.15;15.92
70571;BME280;58135;50.948;-1.458;2022-12-04T02:00:13;101183.41;;;7.39;16.15
70571;BME280;58135;50.948;-1.458;2022-12-04T02:02:38;101179.73;;;7.22;16.18
70571;BME280;58135;50.948;-1.458;2022-12-04T02:05:04;101178.59;;;6.08;16.31
70571;BME280;58135;50.948;-1.458;2022-12-04T02:07:27;101178.65;;;6.47;16.65
70571;BME280;58135;50.948;-1.458;2022-12-04T02:09:53;101174.40;;;7.61;16.33
70571;BME280;58135;50.948;-1.458;2022-12-04T02:12:22;101174.26;;;6.41;16.23
70571;BME280;58135;50.948;-1.458;2022-12-04T02:14:47;101173.46;;;6.45;16.03
70571;BME280;58135;50.948;-1.458;2022-12-04T02:17:19;101168.20;;;6.53;16.11
70571;BME280;58135;50.948;-1.458;2022-12-04T02:19:53;101169.52;;;7.26;15.85
70571;BME280;58135;50.948;-1.458;2022-12-04T02:22:00;101174.22;;;6.71;16.20
70571;BME280;58135;50.948;-1.458;2022-12-04T02:24:36;101176.33;;;6.96;16.43
70571;BME280;58135;50.948;-1.458;2022-12-04T02:26:54;101175.19;;;7.10;16.01
70571;BME280;58135;50.948;-1.458;2022-12-04T02:29:22;101174.53;;;7.50;16.24
70571;BME280;58135;50.948;-1.458;2022-12-04T02:31:45;101175.87;;;7.76;15.99
70571;BME280;58135;50.948;-1.458;2022-12-04T02:34:11;101173.98;;;5.17;16.28
70571;BME280;58135;50.948;-1.458;2022-12-04T02:36:35;101174.63;;;7.53;16.12
70571;BME280;58135;50.948;-1.458;2022-12-04T02:39:03;101179.38;;;6.55;16.35
70571;BME280;58135;50.948;-1.458;2022-12-04T02:41:28;101179.73;;;6.66;16.29
70571;BME280;58135;50.948;-1.458;2022-12-04T02:43:51;101182.26;;;6.24;16.28
70571;BME280;58135;50.948;-1.458;2022-12-04T02:46:19;101181.56;;;7.84;16.05
70571;BME280;58135;50.948;-1.458;2022-12-04T02:48:42;101179.73;;;6.22;16.15
70571;BME280;58135;50.948;-1.458;2022-12-04T02:51:06;101181.36;;;7.17;16.13
70571;BME280;58135;50.948;-1.458;2022-12-04T02:53:33;101178.35;;;6.61;16.19
70571;BME280;58135;50.948;-1.458;2022-12-04T02:55:59;101174.55;;;9.02;15.95
70571;BME280;58135;50.948;-1.458;2022-12-04T02:58:26;101176.21;;;5.33;16.03
70571;BME280;58135;50.948;-1.458;2022-12-04T03:00:47;101168.42;;;8.10;15.95
70571;BME280;58135;50.948;-1.458;2022-12-04T03:03:17;101170.11;;;7.32;16.30
70571;BME280;58135;50.948;-1.458;2022-12-04T03:05:41;101169.18;;;5.69;15.87
70571;BME280;58135;50.948;-1.458;2022-12-04T03:08:06;101169.07;;;7.24;15.80
70571;BME280;58135;50.948;-1.458;2022-12-04T03:10:31;101169.96;;;4.74;16.31
70571;BME280;58135;50.948;-1.458;2022-12-04T03:12:56;101171.52;;;5.12;16.13
70571;BME280;58135;50.948;-1.458;2022-12-04T03:15:23;101167.36;;;7.44;15.67
70571;BME280;58135;50.948;-1.458;2022-12-04T03:17:51;101166.60;;;5.36;15.87
70571;BME280;58135;50.948;-1.458;2022-12-04T03:20:12;101161.90;;;7.11;15.82
70571;BME280;58135;50.948;-1.458;2022-12-04T03:22:38;101158.03;;;7.41;16.35
70571;BME280;58135;50.948;-1.458;2022-12-04T03:25:03;101159.81;;;5.79;15.80
70571;BME280;58135;50.948;-1.458;2022-12-04T03:27:32;101157.27;;;7.52;15.69
70571;BME280;58135;50.948;-1.458;2022-12-04T03:29:56;101156.56;;;6.37;16.20
70571;BME280;58135;50.948;-1.458;2022-12-04T03:32:22;101150.40;;;8.59;16.08
70571;BME280;58135;50.948;-1.458;2022-12-04T03:34:50;101150.69;;;7.59;16.00
70571;BME280;58135;50.948;-1.458;2022-12-04T03:37:12;101147.19;;;6.90;16.25
70571;BME280;58135;50.948;-1.458;2022-12-04T03:39:37;101145.90;;;8.32;16.05
70571;BME280;58135;50.948;-1.458;2022-12-04T03:42:02;101143.38;;;7.23;15.69
70571;BME280;58135;50.948;-1.458;2022-12-04T03:44:28;101139.74;;;5.93;16.41
70571;BME280;58135;50.948;-1.458;2022-12-04T03:46:53;101143.32;;;6.38;15.99
70571;BME280;58135;50.948;-1.458;2022-12-04T03:49:19;101143.04;;;5.30;16.51
70571;BME280;58135;50.948;-1.458;2022-12-04T03:51:44;101139.10;;;6.72;16.37
70571;BME280;58135;50.948;-1.458;2022-12-04T03:54:11;101138.13;;;7.92;15.93
70571;BME280;58135;50.948;-1.458;2022-12-04T03:56:35;101140.43;;;6.83;15.76
70571;BME280;58135;50.948;-1.458;2022-12-04T03:58:59;101144.71;;;6.42;15.80
70571;BME280;58135;50.948;-1.458;2022-12-04T04:01:26;101149.94;;;7.20;16.33
70571;BME280;58135;50.948;-1.458;2022-12-04T04:03:50;101149.52;;;8.10;16.13
70571;BME280;58135;50.948;-1.458;2022-12-04T04:06:17;101148.71;;;6.84;16.12
70571;BME280;58135;50.948;-1.458;2022-12-04T04:08:40;101149.91;;;6.23;16.40
70571;BME280;58135;50.948;-1.458;2022-12-04T04:11:09;101150.94;;;6.56;16.22
70571;BME280;58135;50.948;-1.458;2022-12-04T04:13:34;101147.27;;;5.88;16.04
70571;BME280;58135;50.948;-1.458;2022-12-04T04:15:55;101149.76;;;6.90;15.88
70571;BME280;58135;50.948;-1.458;2022-12-04T04:18:20;101151.87;;;5.47;15.80
70571;BME280;58135;50.948;-1.458;2022-12-04T04:20:48;101152.54;;;6.04;15.96
70571;BME280;58135;50.948;-1.458;2022-12-04T04:23:11;101150.58;;;6.80;15.97
70571;BME280;58135;50.948;-1.458;2022-12-04T04:25:38;101151.08;;;6.09;16.01
70571;BME280;58135;50.948;-1.458;2022-12-04T04:28:02;101147.29;;;5.94;16.17
70571;BME280;58135;50.948;-1.458;2022-12-04T04:30:29;101147.37;;;6.56;16.12
70571;BME280;58135;50.948;-1.458;2022-12-04T04:32:57;101148.35;;;5.72;16.02
70571;BME280;58135;50.948;-1.458;2022-12-04T04:35:21;101146.70;;;6.31;16.35
70571;BME280;58135;50.948;-1.458;2022-12-04T04:37:52;101145.66;;;6.21;15.90
70571;BME280;58135;50.948;-1.458;2022-12-04T04:40:14;101145.89;;;6.71;15.76
70571;BME280;58135;50.948;-1.458;2022-12-04T04:42:40;101143.98;;;5.24;15.69
70571;BME280;58135;50.948;-1.458;2022-12-04T04:45:05;101141.49;;;4.78;15.84
70571;BME280;58135;50.948;-1.458;2022-12-04T04:47:31;101139.02;;;4.77;16.09
70571;BME280;58135;50.948;-1.458;2022-12-04T04:49:53;101141.27;;;5.41;15.86
70571;BME280;58135;50.948;-1.458;2022-12-04T04:52:19;101144.91;;;6.44;16.19
70571;BME280;58135;50.948;-1.458;2022-12-04T04:54:43;101146.57;;;7.22;16.48
70571;BME280;58135;50.948;-1.458;2022-12-04T04:57:08;101146.37;;;7.01;16.15
70571;BME280;58135;50.948;-1.458;2022-12-04T04:59:34;101146.50;;;5.96;16.21
70571;BME280;58135;50.948;-1.458;2022-12-04T05:01:59;101148.51;;;5.47;16.27
70571;BME280;58135;50.948;-1.458;2022-12-04T05:04:24;101147.18;;;4.83;16.21
70571;BME280;58135;50.948;-1.458;2022-12-04T05:06:50;101146.50;;;5.12;16.23
70571;BME280;58135;50.948;-1.458;2022-12-04T05:09:16;101147.91;;;7.37;16.06
70571;BME280;58135;50.948;-1.458;2022-12-04T05:11:40;101144.53;;;6.53;16.64
70571;BME280;58135;50.948;-1.458;2022-12-04T05:14:07;101144.29;;;3.92;16.28
70571;BME280;58135;50.948;-1.458;2022-12-04T05:16:32;101142.80;;;4.76;16.38
70571;BME280;58135;50.948;-1.458;2022-12-04T05:18:57;101143.69;;;4.69;16.41
70571;BME280;58135;50.948;-1.458;2022-12-04T05:21:23;101142.94;;;7.01;16.82
70571;BME280;58135;50.948;-1.458;2022-12-04T05:23:50;101141.68;;;6.30;15.93
70571;BME280;58135;50.948;-1.458;2022-12-04T05:26:14;101139.42;;;5.79;16.20
70571;BME280;58135;50.948;-1.458;2022-12-04T05:28:40;101142.37;;;6.16;16.37
70571;BME280;58135;50.948;-1.458;2022-12-04T05:31:05;101142.27;;;5.28;16.64
70571;BME280;58135;50.948;-1.458;2022-12-04T05:33:31;101144.73;;;3.08;16.52
70571;BME280;58135;50.948;-1.458;2022-12-04T05:35:57;101147.45;;;7.14;16.07
70571;BME280;58135;50.948;-1.458;2022-12-04T05:38:22;101147.95;;;5.40;16.47
70571;BME280;58135;50.948;-1.458;2022-12-04T05:40:47;101146.89;;;7.73;16.40
70571;BME280;58135;50.948;-1.458;2022-12-04T05:43:12;101149.10;;;4.81;16.05
70571;BME280;58135;50.948;-1.458;2022-12-04T05:45:38;101155.95;;;5.75;16.04
70571;BME280;58135;50.948;-1.458;2022-12-04T05:48:04;101157.47;;;6.58;16.00
70571;BME280;58135;50.948;-1.458;2022-12-04T05:50:29;101153.47;;;6.18;16.39
70571;BME280;58135;50.948;-1.458;2022-12-04T05:52:55;101151.61;;;6.60;16.30
70571;BME280;58135;50.948;-1.458;2022-12-04T05:55:20;101151.73;;;7.73;16.51
70571;BME280;58135;50.948;-1.458;2022-12-04T05:57:46;101152.75;;;5.26;16.60
70571;BME280;58135;50.948;-1.458;2022-12-04T06:00:12;101154.84;;;6.31;16.72
70571;BME280;58135;50.948;-1.458;2022-12-04T06:02:36;101154.85;;;6.09;16.73
70571;BME280;58135;50.948;-1.458;2022-12-04T06:05:02;101158.57;;;5.36;16.19
70571;BME280;58135;50.948;-1.458;2022-12-04T06:07:28;101155.43;;;4.40;16.69
70571;BME280;58135;50.948;-1.458;2022-12-04T06:09:53;101148.54;;;5.81;16.54
70571;BME280;58135;50.948;-1.458;2022-12-04T06:12:18;101147.35;;;5.12;16.78
70571;BME280;58135;50.948;-1.458;2022-12-04T06:14:44;101149.23;;;7.07;16.59
70571;BME280;58135;50.948;-1.458;2022-12-04T06:17:10;101145.02;;;5.73;16.57
70571;BME280;58135;50.948;-1.458;2022-12-04T06:19:35;101148.43;;;7.14;16.51
70571;BME280;58135;50.948;-1.458;2022-12-04T06:22:01;101145.80;;;5.87;16.71
70571;BME280;58135;50.948;-1.458;2022-12-04T06:24:26;101145.00;;;8.46;16.15
70571;BME280;58135;50.948;-1.458;2022-12-04T06:26:55;101150.34;;;4.74;16.82
70571;BME280;58135;50.948;-1.458;2022-12-04T06:29:17;101145.94;;;3.45;16.65
70571;BME280;58135;50.948;-1.458;2022-12-04T06:31:42;101141.02;;;7.70;16.74
70571;BME280;58135;50.948;-1.458;2022-12-04T06:34:09;101147.12;;;8.13;16.48
70571;BME280;58135;50.948;-1.458;2022-12-04T06:36:33;101142.11;;;5.38;16.70
70571;BME280;58135;50.948;-1.458;2022-12-04T06:38:58;101142.92;;;8.23;16.47
70571;BME280;58135;50.948;-1.458;2022-12-04T06:41:25;101145.89;;;6.71;16.81
70571;BME280;58135;50.948;-1.458;2022-12-04T06:43:50;101150.13;;;6.57;16.84
70571;BME280;58135;50.948;-1.458;2022-12-04T06:46:17;101152.97;;;5.40;17.11
70571;BME280;58135;50.948;-1.458;2022-12-04T06:48:42;101151.00;;;7.75;16.88
70571;BME280;58135;50.948;-1.458;2022-12-04T06:51:09;101155.38;;;7.37;16.85
70571;BME280;58135;50.948;-1.458;2022-12-04T06:53:33;101160.54;;;6.88;16.67
70571;BME280;58135;50.948;-1.458;2022-12-04T06:55:58;101160.94;;;6.63;16.96
70571;BME280;58135;50.948;-1.458;2022-12-04T06:58:22;101154.61;;;5.59;16.90
70571;BME280;58135;50.948;-1.458;2022-12-04T07:00:47;101152.09;;;6.10;16.71
70571;BME280;58135;50.948;-1.458;2022-12-04T07:03:12;101152.84;;;5.06;16.72
70571;BME280;58135;50.948;-1.458;2022-12-04T07:05:37;101152.49;;;6.36;16.71
70571;BME280;58135;50.948;-1.458;2022-12-04T07:08:03;101154.76;;;6.59;16.76
70571;BME280;58135;50.948;-1.458;2022-12-04T07:10:28;101158.97;;;7.21;16.60
70571;BME280;58135;50.948;-1.458;2022-12-04T07:12:53;101159.09;;;6.93;16.83
70571;BME280;58135;50.948;-1.458;2022-12-04T07:15:19;101165.34;;;7.36;16.97
70571;BME280;58135;50.948;-1.458;2022-12-04T07:17:44;101167.31;;;5.97;16.67
70571;BME280;58135;50.948;-1.458;2022-12-04T07:20:11;101172.50;;;5.69;17.16
70571;BME280;58135;50.948;-1.458;2022-12-04T07:22:35;101173.02;;;5.95;17.19
70571;BME280;58135;50.948;-1.458;2022-12-04T07:25:02;101172.76;;;6.51;17.10
70571;BME280;58135;50.948;-1.458;2022-12-04T07:27:29;101175.51;;;7.68;17.04
70571;BME280;58135;50.948;-1.458;2022-12-04T07:29:52;101175.26;;;4.67;17.12
70571;BME280;58135;50.948;-1.458;2022-12-04T07:32:18;101171.97;;;4.52;17.20
70571;BME280;58135;50.948;-1.458;2022-12-04T07:34:43;101175.95;;;7.38;17.15
70571;BME280;58135;50.948;-1.458;2022-12-04T07:37:08;101178.44;;;6.68;17.32
70571;BME280;58135;50.948;-1.458;2022-12-04T07:39:33;101179.59;;;8.72;17.23
70571;BME280;58135;50.948;-1.458;2022-12-04T07:41:59;101178.96;;;3.71;16.90
70571;BME280;58135;50.948;-1.458;2022-12-04T07:44:25;101180.81;;;6.32;17.08
70571;BME280;58135;50.948;-1.458;2022-12-04T07:46:50;101178.94;;;4.73;17.08
70571;BME280;58135;50.948;-1.458;2022-12-04T07:49:15;101181.98;;;5.04;17.11
70571;BME280;58135;50.948;-1.458;2022-12-04T07:51:41;101185.59;;;5.43;17.09
70571;BME280;58135;50.948;-1.458;2022-12-04T07:54:07;101185.17;;;5.65;17.48
70571;BME280;58135;50.948;-1.458;2022-12-04T07:56:32;101183.92;;;6.18;17.66
70571;BME280;58135;50.948;-1.458;2022-12-04T07:58:58;101183.80;;;4.49;17.51
70571;BME280;58135;50.948;-1.458;2022-12-04T08:01:23;101186.05;;;5.41;17.52
70571;BME280;58135;50.948;-1.458;2022-12-04T08:03:51;101185.56;;;6.32;17.36
70571;BME280;58135;50.948;-1.458;2022-12-04T08:06:15;101184.09;;;7.46;17.40
70571;BME280;58135;50.948;-1.458;2022-12-04T08:08:39;101185.60;;;5.60;17.20
70571;BME280;58135;50.948;-1.458;2022-12-04T08:11:06;101184.60;;;6.20;17.61
70571;BME280;58135;50.948;-1.458;2022-12-04T08:13:30;101186.55;;;7.46;17.36
70571;BME280;58135;50.948;-1.458;2022-12-04T08:15:55;101191.09;;;3.98;17.40
70571;BME280;58135;50.948;-1.458;2022-12-04T08:18:21;101195.73;;;4.66;17.52
70571;BME280;58135;50.948;-1.458;2022-12-04T08:20:47;101194.35;;;5.14;17.55
70571;BME280;58135;50.948;-1.458;2022-12-04T08:23:12;101201.52;;;5.55;17.47
70571;BME280;58135;50.948;-1.458;2022-12-04T08:25:38;101204.41;;;7.02;17.59
70571;BME280;58135;50.948;-1.458;2022-12-04T08:28:04;101208.93;;;4.39;17.69
70571;BME280;58135;50.948;-1.458;2022-12-04T08:30:29;101213.72;;;6.59;17.54
70571;BME280;58135;50.948;-1.458;2022-12-04T08:32:54;101213.80;;;6.09;17.60
70571;BME280;58135;50.948;-1.458;2022-12-04T08:35:20;101215.11;;;4.67;17.45
70571;BME280;58135;50.948;-1.458;2022-12-04T08:37:46;101213.60;;;6.66;17.42
70571;BME280;58135;50.948;-1.458;2022-12-04T08:40:12;101204.86;;;8.90;17.19
70571;BME280;58135;50.948;-1.458;2022-12-04T08:42:36;101206.39;;;5.93;17.15
70571;BME280;58135;50.948;-1.458;2022-12-04T08:45:03;101207.98;;;4.52;17.39
70571;BME280;58135;50.948;-1.458;2022-12-04T08:47:27;101212.51;;;6.10;17.58
70571;BME280;58135;50.948;-1.458;2022-12-04T08:49:52;101213.01;;;7.16;17.54
70571;BME280;58135;50.948;-1.458;2022-12-04T08:52:18;101216.56;;;6.85;17.66
70571;BME280;58135;50.948;-1.458;2022-12-04T08:54:44;101216.83;;;5.16;17.65
70571;BME280;58135;50.948;-1.458;2022-12-04T08:57:10;101221.25;;;5.99;17.76
70571;BME280;58135;50.948;-1.458;2022-12-04T08:59:35;101226.42;;;6.58;17.64
70571;BME280;58135;50.948;-1.458;2022-12-04T09:02:01;101226.56;;;4.96;17.62
70571;BME280;58135;50.948;-1.458;2022-12-04T09:04:26;101224.91;;;7.13;17.49
70571;BME280;58135;50.948;-1.458;2022-12-04T09:06:51;101221.25;;;6.54;17.35
70571;BME280;58135;50.948;-1.458;2022-12-04T09:09:17;101223.92;;;4.73;17.21
70571;BME280;58135;50.948;-1.458;2022-12-04T09:11:43;101224.56;;;5.52;17.29
70571;BME280;58135;50.948;-1.458;2022-12-04T09:14:07;101222.84;;;6.59;17.26
70571;BME280;58135;50.948;-1.458;2022-12-04T09:16:32;101224.21;;;8.55;17.23
70571;BME280;58135;50.948;-1.458;2022-12-04T09:18:58;101222.19;;;6.07;17.16
70571;BME280;58135;50.948;-1.458;2022-12-04T09:21:23;101224.70;;;5.92;17.11
70571;BME280;58135;50.948;-1.458;2022-12-04T09:23:49;101224.61;;;7.82;17.17
70571;BME280;58135;50.948;-1.458;2022-12-04T09:26:17;101227.58;;;7.23;17.01
70571;BME280;58135;50.948;-1.458;2022-12-04T09:28:40;101230.87;;;7.17;16.83
70571;BME280;58135;50.948;-1.458;2022-12-04T09:31:05;101235.21;;;6.82;16.79
70571;BME280;58135;50.948;-1.458;2022-12-04T09:33:31;101240.59;;;6.76;17.00
70571;BME280;58135;50.948;-1.458;2022-12-04T09:35:57;101237.58;;;7.77;16.76
70571;BME280;58135;50.948;-1.458;2022-12-04T09:38:21;101238.52;;;7.67;16.55
70571;BME280;58135;50.948;-1.458;2022-12-04T09:40:53;101243.06;;;6.41;16.97
70571;BME280;58135;50.948;-1.458;2022-12-04T09:43:19;101245.09;;;7.35;16.49
70571;BME280;58135;50.948;-1.458;2022-12-04T09:45:41;101249.47;;;7.36;17.05
70571;BME280;58135;50.948;-1.458;2022-12-04T09:48:03;101248.61;;;6.61;16.43
70571;BME280;58135;50.948;-1.458;2022-12-04T09:50:34;101251.50;;;7.82;16.66
70571;BME280;58135;50.948;-1.458;2022-12-04T09:52:56;101258.46;;;6.28;16.01
70571;BME280;58135;50.948;-1.458;2022-12-04T09:55:26;101265.37;;;7.06;16.67
70571;BME280;58135;50.948;-1.458;2022-12-04T09:57:47;101270.80;;;6.19;16.12
70571;BME280;58135;50.948;-1.458;2022-12-04T10:00:13;101272.10;;;6.81;16.25
70571;BME280;58135;50.948;-1.458;2022-12-04T10:02:38;101277.55;;;5.36;16.85
70571;BME280;58135;50.948;-1.458;2022-12-04T10:05:03;101282.33;;;5.08;16.50
70571;BME280;58135;50.948;-1.458;2022-12-04T10:07:32;101283.78;;;5.19;16.82
70571;BME280;58135;50.948;-1.458;2022-12-04T10:09:57;101291.54;;;8.30;16.93
70571;BME280;58135;50.948;-1.458;2022-12-04T10:12:22;101288.08;;;7.43;16.26
70571;BME280;58135;50.948;-1.458;2022-12-04T10:14:52;101288.05;;;4.65;17.02
70571;BME280;58135;50.948;-1.458;2022-12-04T10:17:25;101292.46;;;6.57;16.17
70571;BME280;58135;50.948;-1.458;2022-12-04T10:19:41;101288.00;;;6.81;16.39
70571;BME280;58135;50.948;-1.458;2022-12-04T10:22:08;101287.38;;;4.29;16.20
70571;BME280;58135;50.948;-1.458;2022-12-04T10:24:35;101287.33;;;7.28;15.76
70571;BME280;58135;50.948;-1.458;2022-12-04T10:26:53;101288.33;;;6.49;16.05
70571;BME280;58135;50.948;-1.458;2022-12-04T10:29:19;101283.18;;;5.61;15.94
70571;BME280;58135;50.948;-1.458;2022-12-04T10:31:43;101284.00;;;6.05;16.14
70571;BME280;58135;50.948;-1.458;2022-12-04T10:34:13;101283.59;;;3.83;16.26
70571;BME280;58135;50.948;-1.458;2022-12-04T10:36:34;101281.47;;;6.82;16.81
70571;BME280;58135;50.948;-1.458;2022-12-04T10:39:00;101276.62;;;5.30;16.48
70571;BME280;58135;50.948;-1.458;2022-12-04T10:41:27;101276.27;;;5.64;16.18
70571;BME280;58135;50.948;-1.458;2022-12-04T10:43:49;101279.00;;;5.58;16.44
70571;BME280;58135;50.948;-1.458;2022-12-04T10:46:20;101275.21;;;5.84;16.24
70571;BME280;58135;50.948;-1.458;2022-12-04T10:48:42;101276.22;;;5.47;16.15
70571;BME280;58135;50.948;-1.458;2022-12-04T10:51:12;101275.83;;;7.85;16.33
70571;BME280;58135;50.948;-1.458;2022-12-04T10:53:33;101268.73;;;8.95;16.07
70571;BME280;58135;50.948;-1.458;2022-12-04T10:56:07;101269.78;;;6.04;15.83
70571;BME280;58135;50.948;-1.458;2022-12-04T10:58:21;101273.92;;;6.79;16.10
70571;BME280;58135;50.948;-1.458;2022-12-04T11:03:21;101272.39;;;7.33;16.06
70571;BME280;58135;50.948;-1.458;2022-12-04T11:05:43;101272.22;;;6.31;16.14
70571;BME280;58135;50.948;-1.458;2022-12-04T11:08:05;101269.26;;;8.44;15.71
70571;BME280;58135;50.948;-1.458;2022-12-04T11:10:34;101271.17;;;6.61;15.96
70571;BME280;58135;50.948;-1.458;2022-12-04T11:12:56;101274.93;;;6.70;15.73
70571;BME280;58135;50.948;-1.458;2022-12-04T11:15:21;101261.56;;;8.09;15.71
70571;BME280;58135;50.948;-1.458;2022-12-04T11:17:46;101262.64;;;6.02;15.64
70571;BME280;58135;50.948;-1.458;2022-12-04T11:20:16;101263.30;;;5.36;15.48
70571;BME280;58135;50.948;-1.458;2022-12-04T11:22:47;101269.49;;;7.28;15.98
70571;BME280;58135;50.948;-1.458;2022-12-04T11:25:03;101269.41;;;6.87;15.15
70571;BME280;58135;50.948;-1.458;2022-12-04T11:27:31;101270.14;;;9.08;15.69
70571;BME280;58135;50.948;-1.458;2022-12-04T11:29:55;101270.94;;;7.58;15.56
70571;BME280;58135;50.948;-1.458;2022-12-04T11:32:21;101269.82;;;6.54;16.07
70571;BME280;58135;50.948;-1.458;2022-12-04T11:34:45;101269.07;;;6.80;16.58
70571;BME280;58135;50.948;-1.458;2022-12-04T11:37:18;101265.86;;;6.95;16.22
70571;BME280;58135;50.948;-1.458;2022-12-04T11:39:39;101266.01;;;7.29;16.33
70571;BME280;58135;50.948;-1.458;2022-12-04T11:42:04;101258.79;;;5.96;16.17
70571;BME280;58135;50.948;-1.458;2022-12-04T11:44:30;101251.13;;;6.55;15.85
70571;BME280;58135;50.948;-1.458;2022-12-04T11:46:56;101252.99;;;7.27;15.60
70571;BME280;58135;50.948;-1.458;2022-12-04T11:49:20;101249.64;;;9.08;15.41
70571;BME280;58135;50.948;-1.458;2022-12-04T11:51:51;101251.00;;;6.61;16.10
70571;BME280;58135;50.948;-1.458;2022-12-04T11:54:18;101249.64;;;8.13;15.30
70571;BME280;58135;50.948;-1.458;2022-12-04T11:56:38;101248.56;;;7.88;15.47
70571;BME280;58135;50.948;-1.458;2022-12-04T11:59:14;101252.04;;;7.75;15.88
70571;BME280;58135;50.948;-1.458;2022-12-04T12:01:35;101248.72;;;7.18;15.57
70571;BME280;58135;50.948;-1.458;2022-12-04T12:04:04;101247.07;;;7.74;15.77
70571;BME280;58135;50.948;-1.458;2022-12-04T12:06:28;101243.57;;;6.86;15.55
70571;BME280;58135;50.948;-1.458;2022-12-04T12:08:56;101235.53;;;6.29;15.91
70571;BME280;58135;50.948;-1.458;2022-12-04T12:11:13;101233.03;;;8.49;15.88
70571;BME280;58135;50.948;-1.458;2022-12-04T12:13:40;101231.62;;;8.07;16.34
70571;BME280;58135;50.948;-1.458;2022-12-04T12:16:06;101228.46;;;8.56;15.86
70571;BME280;58135;50.948;-1.458;2022-12-04T12:18:37;101226.65;;;7.90;16.00
70571;BME280;58135;50.948;-1.458;2022-12-04T12:20:57;101218.31;;;8.99;16.27
70571;BME280;58135;50.948;-1.458;2022-12-04T12:23:24;101219.21;;;6.73;15.72
70571;BME280;58135;50.948;-1.458;2022-12-04T12:25:48;101214.71;;;7.08;15.70
70571;BME280;58135;50.948;-1.458;2022-12-04T12:28:14;101212.53;;;8.25;15.66
70571;BME280;58135;50.948;-1.458;2022-12-04T12:30:38;101212.25;;;8.53;15.46
70571;BME280;58135;50.948;-1.458;2022-12-04T12:33:02;101211.58;;;9.47;15.47
70571;BME280;58135;50.948;-1.458;2022-12-04T12:35:26;101218.26;;;9.31;15.50
70571;BME280;58135;50.948;-1.458;2022-12-04T12:37:51;101217.75;;;7.87;15.45
70571;BME280;58135;50.948;-1.458;2022-12-04T12:40:14;101219.91;;;8.38;15.06
70571;BME280;58135;50.948;-1.458;2022-12-04T12:42:46;101216.78;;;7.50;15.63